Time;durP1;ratioP1;P1;durP2;ratioP2;P2;SDS_P1;SDS_P2;PMS_P1;PMS_P2;Temp;Humidity;BMP_temperature;BMP_pressure;BME280_temperature;BME280_humidity;BME280_pressure;Samples;Min_cycle;Max_cycle;Signal;HPM_P1;HPM_P2
2022/04/13 00:00:30;;;;;;;14.20;10.32;;;12.00;99.90;;;;;;4901947;29;20101;-76
2022/04/13 00:02:56;;;;;;;14.93;9.60;;;11.90;99.90;;;;;;4918796;29;20099;-75
2022/04/13 00:05:22;;;;;;;14.50;10.15;;;12.00;99.90;;;;;;4901652;29;20059;-76
2022/04/13 00:07:48;;;;;;;14.48;9.68;;;12.00;99.90;;;;;;4901691;29;20056;-76
2022/04/13 00:10:13;;;;;;;15.25;10.70;;;11.90;99.90;;;;;;4901856;29;20068;-76
2022/04/13 00:12:39;;;;;;;13.77;10.50;;;11.80;99.90;;;;;;4918265;29;20400;-76
2022/04/13 00:15:07;;;;;;;14.07;10.30;;;11.80;99.90;;;;;;4918356;29;20503;-76
2022/04/13 00:17:34;;;;;;;14.35;9.68;;;11.80;99.90;;;;;;4901647;29;20048;-76
2022/04/13 00:20:00;;;;;;;13.45;10.05;;;11.70;99.90;;;;;;4901367;29;20127;-76
2022/04/13 00:22:26;;;;;;;14.93;9.85;;;11.70;99.90;;;;;;4918406;29;20069;-76
2022/04/13 00:24:51;;;;;;;15.98;9.80;;;11.70;99.90;;;;;;4918300;29;20075;-76
2022/04/13 00:27:17;;;;;;;12.48;9.73;;;11.70;99.90;;;;;;4918112;29;20056;-76
2022/04/13 00:29:42;;;;;;;15.02;9.75;;;11.60;99.90;;;;;;4901349;29;20403;-76
2022/04/13 00:32:08;;;;;;;13.13;9.48;;;11.60;99.90;;;;;;4918119;29;20451;-76
2022/04/13 00:34:34;;;;;;;14.60;9.85;;;11.50;99.90;;;;;;4918185;29;20048;-76
2022/04/13 00:37:00;;;;;;;16.77;11.18;;;11.50;99.90;;;;;;4918379;29;20118;-76
2022/04/13 00:39:27;;;;;;;15.68;10.98;;;11.50;99.90;;;;;;4917939;29;20130;-76
2022/04/13 00:42:04;;;;;;;19.73;11.85;;;11.50;99.90;;;;;;4917709;29;20060;-76
2022/04/13 00:44:30;;;;;;;15.75;11.27;;;11.60;99.90;;;;;;4901227;29;20052;-75
2022/04/13 00:46:57;;;;;;;22.67;12.38;;;11.50;99.90;;;;;;4901165;29;20051;-75
2022/04/13 00:49:25;;;;;;;17.25;11.52;;;11.60;99.90;;;;;;4917939;29;20048;-76
2022/04/13 00:51:52;;;;;;;16.80;12.02;;;11.60;99.90;;;;;;4917897;29;20048;-76
2022/04/13 00:54:24;;;;;;;17.17;12.57;;;11.60;99.90;;;;;;4901366;29;20067;-76
2022/04/13 00:56:52;;;;;;;18.33;11.98;;;11.60;99.90;;;;;;4918061;29;20082;-76
2022/04/13 00:59:19;;;;;;;20.58;13.23;;;11.60;99.90;;;;;;4917773;29;20052;-76
2022/04/13 01:01:49;;;;;;;18.48;12.73;;;11.60;99.90;;;;;;4917662;29;20385;-76
2022/04/13 01:04:16;;;;;;;16.20;11.65;;;11.60;99.90;;;;;;4917754;29;20099;-76
2022/04/13 01:06:43;;;;;;;17.45;11.52;;;11.50;99.90;;;;;;4900706;29;20058;-76
2022/04/13 01:09:11;;;;;;;17.75;11.60;;;11.50;99.90;;;;;;4917704;29;20062;-76
2022/04/13 01:11:37;;;;;;;17.27;12.02;;;11.40;99.90;;;;;;4917559;29;20055;-76
2022/04/13 01:14:02;;;;;;;19.13;11.93;;;11.40;99.90;;;;;;4917493;29;20044;-76
2022/04/13 01:16:28;;;;;;;19.10;11.80;;;11.30;99.90;;;;;;4917496;29;20052;-76
2022/04/13 01:18:54;;;;;;;17.92;12.25;;;11.30;99.90;;;;;;4900522;29;20052;-76
2022/04/13 01:21:45;;;;;;;16.45;11.35;;;11.30;99.90;;;;;;4900618;29;20048;-76
2022/04/13 01:24:12;;;;;;;17.02;11.93;;;11.20;99.90;;;;;;4900720;29;20127;-76
2022/04/13 01:26:38;;;;;;;18.77;12.60;;;11.20;99.90;;;;;;4917533;29;20046;-76
2022/04/13 01:29:05;;;;;;;17.75;13.23;;;11.20;99.90;;;;;;4900681;29;20048;-76
2022/04/13 01:31:31;;;;;;;18.67;11.88;;;11.20;99.90;;;;;;4917425;29;20044;-76
2022/04/13 01:33:59;;;;;;;20.40;13.25;;;11.20;99.90;;;;;;4900274;29;20063;-76
2022/04/13 01:36:25;;;;;;;18.38;13.70;;;11.20;99.90;;;;;;4900591;29;20084;-76
2022/04/13 01:38:51;;;;;;;17.88;12.50;;;11.20;99.90;;;;;;4900298;29;20063;-76
2022/04/13 01:41:17;;;;;;;20.92;13.85;;;11.20;99.90;;;;;;4900160;29;20052;-76
2022/04/13 01:43:43;;;;;;;17.38;12.85;;;11.20;99.90;;;;;;4900399;29;20486;-76
2022/04/13 01:46:09;;;;;;;20.52;14.18;;;11.20;99.90;;;;;;4904033;29;20124;-76
2022/04/13 01:48:34;;;;;;;20.83;15.30;;;11.20;99.90;;;;;;4921429;29;20131;-76
2022/04/13 01:51:00;;;;;;;25.10;15.35;;;11.20;99.90;;;;;;4904026;29;20135;-76
2022/04/13 01:53:26;;;;;;;24.85;15.55;;;11.20;99.90;;;;;;4904052;29;20048;-76
2022/04/13 01:55:53;;;;;;;22.33;15.30;;;11.20;99.90;;;;;;4920950;29;20491;-76
2022/04/13 01:58:20;;;;;;;20.05;14.95;;;11.20;99.90;;;;;;4904137;29;20055;-76
2022/04/13 02:00:46;;;;;;;20.83;14.85;;;11.20;99.90;;;;;;4920861;29;20440;-76
2022/04/13 02:03:11;;;;;;;23.98;16.83;;;11.20;99.90;;;;;;4920863;29;20492;-76
2022/04/13 02:05:38;;;;;;;22.08;16.80;;;11.20;99.90;;;;;;4894795;29;20063;-76
2022/04/13 02:08:03;;;;;;;21.20;15.57;;;11.20;99.90;;;;;;4901965;29;20048;-76
2022/04/13 02:10:29;;;;;;;23.70;15.80;;;11.20;99.90;;;;;;4885001;29;20051;-76
2022/04/13 02:12:55;;;;;;;27.63;17.33;;;11.20;99.90;;;;;;4901896;29;20476;-76
2022/04/13 02:15:20;;;;;;;26.40;17.45;;;11.20;99.90;;;;;;4884993;29;20052;-75
2022/04/13 02:17:46;;;;;;;23.63;16.73;;;11.20;99.90;;;;;;4901751;29;20076;-75
2022/04/13 02:20:12;;;;;;;22.88;16.58;;;11.20;99.90;;;;;;4901974;29;20061;-76
2022/04/13 02:22:38;;;;;;;27.75;15.82;;;11.20;99.90;;;;;;4901711;29;20072;-75
2022/04/13 02:25:05;;;;;;;24.27;15.40;;;11.20;99.90;;;;;;4901441;29;20088;-75
2022/04/13 02:27:31;;;;;;;22.00;16.05;;;11.20;99.90;;;;;;4885066;29;20057;-76
2022/04/13 02:29:57;;;;;;;24.00;15.93;;;11.20;99.90;;;;;;4884930;29;20438;-76
2022/04/13 02:32:22;;;;;;;22.65;16.15;;;11.20;99.90;;;;;;4884738;29;20056;-75
2022/04/13 02:34:48;;;;;;;24.65;15.45;;;11.20;99.90;;;;;;4884824;29;20048;-75
2022/04/13 02:37:17;;;;;;;22.20;16.13;;;11.20;99.90;;;;;;4884529;29;20057;-76
2022/04/13 02:39:44;;;;;;;21.90;14.93;;;11.20;99.90;;;;;;4901372;29;20044;-75
2022/04/13 02:42:14;;;;;;;26.67;17.73;;;11.20;99.90;;;;;;4901170;29;20540;-75
2022/04/13 02:44:44;;;;;;;25.33;16.08;;;11.30;99.90;;;;;;4884308;29;20044;-75
2022/04/13 02:47:12;;;;;;;27.27;17.30;;;11.30;99.90;;;;;;4884281;29;20047;-76
2022/04/13 02:49:38;;;;;;;24.95;16.05;;;11.20;99.90;;;;;;4884332;29;20045;-75
2022/04/13 02:52:05;;;;;;;21.63;15.57;;;11.30;99.90;;;;;;4884329;29;20052;-76
2022/04/13 02:54:30;;;;;;;26.38;15.23;;;11.20;99.90;;;;;;4901137;29;20055;-76
2022/04/13 02:56:56;;;;;;;28.40;17.55;;;11.20;99.90;;;;;;4884129;29;20045;-76
2022/04/13 02:59:21;;;;;;;22.50;14.73;;;11.20;99.90;;;;;;4900982;29;20078;-76
2022/04/13 03:01:48;;;;;;;24.73;15.23;;;11.10;99.90;;;;;;4900918;29;20051;-76
2022/04/13 03:04:16;;;;;;;25.20;15.85;;;11.10;99.90;;;;;;4900893;29;20048;-76
2022/04/13 03:06:42;;;;;;;25.40;16.02;;;11.10;99.90;;;;;;4884293;29;20051;-75
2022/04/13 03:09:08;;;;;;;22.90;16.00;;;11.00;99.90;;;;;;4884528;29;20053;-75
2022/04/13 03:11:33;;;;;;;26.85;16.52;;;11.00;99.90;;;;;;4884223;29;20381;-75
2022/04/13 03:13:59;;;;;;;25.50;16.25;;;11.00;99.90;;;;;;4900835;29;20072;-76
2022/04/13 03:16:24;;;;;;;24.85;16.20;;;11.00;99.90;;;;;;4884075;29;20392;-76
2022/04/13 03:18:50;;;;;;;23.65;15.85;;;11.00;99.90;;;;;;4883912;29;20056;-76
2022/04/13 03:21:16;;;;;;;27.85;16.92;;;11.00;99.90;;;;;;4884273;29;20393;-75
2022/04/13 03:23:41;;;;;;;24.42;16.52;;;11.00;99.90;;;;;;4883671;29;20506;-75
2022/04/13 03:26:07;;;;;;;24.73;16.20;;;11.00;99.90;;;;;;4883751;29;20137;-76
2022/04/13 03:28:33;;;;;;;25.30;15.23;;;11.00;99.90;;;;;;4900593;29;20052;-75
2022/04/13 03:30:59;;;;;;;25.83;16.05;;;10.90;99.90;;;;;;4883568;29;20049;-76
2022/04/13 03:33:25;;;;;;;25.05;16.23;;;11.00;99.90;;;;;;4883798;29;20128;-76
2022/04/13 03:35:51;;;;;;;24.73;15.10;;;10.90;99.90;;;;;;4883500;29;20437;-75
2022/04/13 03:38:17;;;;;;;22.05;14.93;;;10.90;99.90;;;;;;4900268;29;20040;-75
2022/04/13 03:40:42;;;;;;;26.13;14.90;;;10.80;99.90;;;;;;4883228;29;20099;-75
2022/04/13 03:43:08;;;;;;;26.27;15.70;;;10.70;99.90;;;;;;4883297;29;20084;-75
2022/04/13 03:45:34;;;;;;;26.23;16.63;;;10.70;99.90;;;;;;4900224;29;20073;-75
2022/04/13 03:48:00;;;;;;;25.83;16.67;;;10.60;99.90;;;;;;4900496;29;20104;-75
2022/04/13 03:50:25;;;;;;;25.00;15.13;;;10.60;99.90;;;;;;4883495;29;20135;-76
2022/04/13 03:52:51;;;;;;;23.48;15.23;;;10.60;99.90;;;;;;4883311;29;20123;-75
2022/04/13 03:55:19;;;;;;;24.17;15.52;;;10.60;99.90;;;;;;4900035;29;20052;-76
2022/04/13 03:57:45;;;;;;;20.48;14.50;;;10.50;99.90;;;;;;4899950;29;20048;-76
2022/04/13 04:00:11;;;;;;;24.60;15.85;;;10.50;99.90;;;;;;4899971;29;20045;-75
2022/04/13 04:02:38;;;;;;;28.17;16.92;;;10.50;99.90;;;;;;4883186;29;20049;-75
2022/04/13 04:05:04;;;;;;;23.58;15.68;;;10.50;99.90;;;;;;4883037;29;20128;-76
2022/04/13 04:07:29;;;;;;;25.10;16.27;;;10.50;99.90;;;;;;4899333;29;20370;-76
2022/04/13 04:09:55;;;;;;;25.73;16.40;;;10.50;99.90;;;;;;4882944;29;20495;-75
2022/04/13 04:12:21;;;;;;;27.20;16.52;;;10.50;99.90;;;;;;4899760;29;20055;-76
2022/04/13 04:14:46;;;;;;;23.92;15.80;;;10.50;99.90;;;;;;4882729;29;20049;-76
2022/04/13 04:17:12;;;;;;;27.23;16.73;;;10.50;99.90;;;;;;4882773;29;20049;-75
2022/04/13 04:19:38;;;;;;;26.55;18.05;;;10.60;99.90;;;;;;4882676;29;20092;-75
2022/04/13 04:22:03;;;;;;;29.48;17.48;;;10.60;99.90;;;;;;4899585;29;20138;-75
2022/04/13 04:24:29;;;;;;;28.08;17.48;;;10.60;99.90;;;;;;4882620;29;20059;-76
2022/04/13 04:26:55;;;;;;;25.25;17.05;;;10.60;99.90;;;;;;4882518;29;20503;-76
2022/04/13 04:29:22;;;;;;;26.52;17.27;;;10.70;99.90;;;;;;4899425;29;20045;-76
2022/04/13 04:31:51;;;;;;;29.30;17.13;;;10.70;99.90;;;;;;4882504;29;20052;-76
2022/04/13 04:34:17;;;;;;;24.65;15.98;;;10.70;99.90;;;;;;4882720;29;20056;-76
2022/04/13 04:36:43;;;;;;;28.17;16.80;;;10.70;99.90;;;;;;4899314;29;20048;-75
2022/04/13 04:39:09;;;;;;;28.83;17.85;;;10.70;99.90;;;;;;4899125;29;20044;-76
2022/04/13 04:41:34;;;;;;;23.55;16.98;;;10.70;99.90;;;;;;4898723;29;20432;-76
2022/04/13 04:44:00;;;;;;;28.10;17.85;;;10.70;99.90;;;;;;4882021;29;20048;-75
2022/04/13 04:46:26;;;;;;;27.48;17.42;;;10.80;99.90;;;;;;4898923;29;20047;-76
2022/04/13 04:48:52;;;;;;;26.20;18.20;;;10.80;99.90;;;;;;4881493;29;20060;-75
2022/04/13 04:51:18;;;;;;;27.30;17.40;;;10.80;99.90;;;;;;4898983;29;20045;-75
2022/04/13 04:53:44;;;;;;;27.58;18.42;;;10.90;99.90;;;;;;4882074;29;20362;-75
2022/04/13 04:56:10;;;;;;;32.80;18.60;;;10.90;99.90;;;;;;4898976;29;20068;-75
2022/04/13 04:58:35;;;;;;;27.42;18.30;;;10.90;99.90;;;;;;4882031;29;20104;-76
2022/04/13 05:01:01;;;;;;;31.38;19.33;;;10.90;99.90;;;;;;4898818;29;20461;-76
2022/04/13 05:03:27;;;;;;;29.10;18.38;;;11.00;99.90;;;;;;4881846;29;20540;-76
2022/04/13 05:05:52;;;;;;;29.45;17.63;;;11.00;99.90;;;;;;4898740;29;20116;-76
2022/04/13 05:08:18;;;;;;;30.48;19.10;;;11.00;99.90;;;;;;4898580;29;20041;-76
2022/04/13 05:10:50;;;;;;;31.48;19.38;;;11.00;99.90;;;;;;4898715;29;20048;-76
2022/04/13 05:13:17;;;;;;;31.08;19.10;;;11.00;99.90;;;;;;4898567;29;20112;-76
2022/04/13 05:15:43;;;;;;;32.40;19.02;;;11.10;99.90;;;;;;4881680;29;20112;-75
2022/04/13 05:18:08;;;;;;;31.73;19.65;;;11.10;99.90;;;;;;4898533;29;20048;-76
2022/04/13 05:20:34;;;;;;;33.95;19.27;;;11.10;99.90;;;;;;4897801;29;20056;-76
2022/04/13 05:22:59;;;;;;;31.88;19.70;;;11.10;99.90;;;;;;4898584;29;20044;-76
2022/04/13 05:25:25;;;;;;;29.55;19.20;;;11.20;99.90;;;;;;4881591;29;20057;-75
2022/04/13 05:27:51;;;;;;;31.35;20.63;;;11.10;99.90;;;;;;4898725;29;20049;-75
2022/04/13 05:30:16;;;;;;;29.05;19.08;;;11.20;99.90;;;;;;4898597;29;20040;-75
2022/04/13 05:32:50;;;;;;;32.40;20.42;;;11.20;99.90;;;;;;4881812;29;20064;-75
2022/04/13 05:35:19;;;;;;;30.48;19.20;;;11.20;99.90;;;;;;4898242;29;20095;-75
2022/04/13 05:37:45;;;;;;;31.15;19.80;;;11.10;99.90;;;;;;4898484;29;20127;-75
2022/04/13 05:40:11;;;;;;;29.50;19.70;;;11.20;99.90;;;;;;4898172;29;20052;-76
2022/04/13 05:42:37;;;;;;;31.70;19.42;;;11.20;99.90;;;;;;4898473;29;20053;-76
2022/04/13 05:45:03;;;;;;;29.27;20.23;;;11.10;99.90;;;;;;4898384;29;20080;-76
2022/04/13 05:47:29;;;;;;;32.17;20.52;;;11.20;99.90;;;;;;4881405;29;20168;-76
2022/04/13 05:49:55;;;;;;;29.70;20.80;;;11.20;99.90;;;;;;4881370;29;20128;-76
2022/04/13 05:52:21;;;;;;;31.73;19.67;;;11.20;99.90;;;;;;4898384;29;20132;-76
2022/04/13 05:54:46;;;;;;;31.65;20.40;;;11.20;99.90;;;;;;4898325;29;20041;-75
2022/04/13 05:57:12;;;;;;;33.13;20.77;;;11.20;99.90;;;;;;4881370;29;20449;-75
2022/04/13 05:59:38;;;;;;;33.42;20.30;;;11.30;99.90;;;;;;4897960;29;20055;-75
2022/04/13 06:02:05;;;;;;;32.03;20.17;;;11.30;99.90;;;;;;4881243;29;20404;-75
2022/04/13 06:04:31;;;;;;;30.67;21.08;;;11.30;99.90;;;;;;4898186;29;20053;-75
2022/04/13 06:06:59;;;;;;;32.72;20.13;;;11.30;99.90;;;;;;4881468;29;20374;-75
2022/04/13 06:09:25;;;;;;;33.13;20.95;;;11.40;99.90;;;;;;4898168;29;20056;-75
2022/04/13 06:11:51;;;;;;;33.05;22.48;;;11.40;99.90;;;;;;4881418;29;20396;-75
2022/04/13 06:14:16;;;;;;;29.35;20.35;;;11.40;99.90;;;;;;4881428;29;20057;-75
2022/04/13 06:16:42;;;;;;;36.80;21.73;;;11.40;99.90;;;;;;4881262;29;20052;-76
2022/04/13 06:19:08;;;;;;;37.15;21.40;;;11.50;99.90;;;;;;4881157;29;20052;-75
2022/04/13 06:21:34;;;;;;;34.75;22.13;;;11.50;99.90;;;;;;4898072;29;20056;-75
2022/04/13 06:23:59;;;;;;;36.90;22.58;;;11.60;99.90;;;;;;4881417;29;20053;-76
2022/04/13 06:26:25;;;;;;;34.53;21.42;;;11.70;99.90;;;;;;4898427;29;20041;-75
2022/04/13 06:28:52;;;;;;;39.70;22.02;;;11.80;99.90;;;;;;4881573;29;20405;-75
2022/04/13 06:31:21;;;;;;;31.35;21.35;;;11.80;99.90;;;;;;4900159;29;20048;-77
2022/04/13 06:33:47;;;;;;;35.13;20.65;;;11.80;99.90;;;;;;4901113;29;20100;-76
2022/04/13 06:36:13;;;;;;;33.78;20.80;;;11.80;99.90;;;;;;4901199;29;20091;-75
2022/04/13 06:38:40;;;;;;;32.13;20.80;;;11.80;99.90;;;;;;4901304;29;20091;-76
2022/04/13 06:41:10;;;;;;;38.58;21.30;;;11.90;99.90;;;;;;4901326;29;20060;-75
2022/04/13 06:43:35;;;;;;;35.05;21.65;;;11.90;99.90;;;;;;4901135;29;20446;-76
2022/04/13 06:46:01;;;;;;;33.70;20.50;;;11.90;99.90;;;;;;4884330;29;20485;-75
2022/04/13 06:48:27;;;;;;;34.72;20.55;;;11.90;99.90;;;;;;4884144;29;20056;-76
2022/04/13 06:50:53;;;;;;;31.90;20.35;;;11.90;99.90;;;;;;4883960;29;20052;-76
2022/04/13 06:53:18;;;;;;;31.80;19.27;;;11.90;99.90;;;;;;4884174;29;20040;-76
2022/04/13 06:55:50;;;;;;;28.98;18.60;;;11.90;99.90;;;;;;4901112;29;20405;-76
2022/04/13 06:58:16;;;;;;;35.33;19.33;;;12.00;99.90;;;;;;4900601;29;20052;-76
2022/04/13 07:00:42;;;;;;;33.35;19.52;;;12.00;99.90;;;;;;4900690;29;20059;-76
2022/04/13 07:03:08;;;;;;;30.38;19.48;;;12.00;99.90;;;;;;4883861;29;20052;-77
2022/04/13 07:05:34;;;;;;;31.30;19.50;;;12.10;99.90;;;;;;4900621;29;20091;-77
2022/04/13 07:08:02;;;;;;;31.33;18.75;;;12.10;99.90;;;;;;4884150;29;20080;-76
2022/04/13 07:10:28;;;;;;;30.17;19.88;;;12.10;99.90;;;;;;4908763;29;20063;-76
2022/04/13 07:12:54;;;;;;;33.60;20.58;;;12.10;99.90;;;;;;4902099;29;20040;-76
2022/04/13 07:15:20;;;;;;;33.80;19.45;;;12.20;99.90;;;;;;4883697;29;20044;-76
2022/04/13 07:17:46;;;;;;;37.92;20.60;;;12.20;99.90;;;;;;4883490;29;20071;-76
2022/04/13 07:20:13;;;;;;;31.48;18.55;;;12.20;99.90;;;;;;4900099;29;20095;-76
2022/04/13 07:22:49;;;;;;;32.60;18.77;;;12.20;99.90;;;;;;4883724;29;20049;-78
2022/04/13 07:25:19;;;;;;;31.83;19.42;;;12.20;99.90;;;;;;4900238;29;20080;-77
2022/04/13 07:27:45;;;;;;;33.88;19.88;;;12.30;99.90;;;;;;4883526;29;20061;-77
2022/04/13 07:30:13;;;;;;;33.20;19.48;;;12.30;99.90;;;;;;4900022;29;20081;-77
2022/04/13 07:32:39;;;;;;;33.47;18.70;;;12.30;99.90;;;;;;4900282;29;20048;-77
2022/04/13 07:35:06;;;;;;;34.60;18.92;;;12.40;99.90;;;;;;4900268;29;20041;-77
2022/04/13 07:37:32;;;;;;;28.75;18.40;;;12.40;99.90;;;;;;4883377;29;20057;-77
2022/04/13 07:40:01;;;;;;;27.92;18.20;;;12.50;99.90;;;;;;4882860;29;20442;-77
2022/04/13 07:42:27;;;;;;;31.83;19.33;;;12.50;99.90;;;;;;4899008;29;20067;-79
2022/04/13 07:44:54;;;;;;;31.85;19.27;;;12.60;99.90;;;;;;4899833;29;20053;-77
2022/04/13 07:47:20;;;;;;;30.38;18.17;;;12.70;99.90;;;;;;4882885;29;20048;-77
2022/04/13 07:49:47;;;;;;;32.72;19.05;;;12.80;99.90;;;;;;4900015;29;20092;-79
2022/04/13 07:52:13;;;;;;;29.90;18.27;;;12.80;99.90;;;;;;4883111;29;20044;-79
2022/04/13 07:54:39;;;;;;;29.55;18.80;;;12.80;99.90;;;;;;4899548;29;20409;-78
2022/04/13 07:57:06;;;;;;;30.85;18.08;;;12.90;99.90;;;;;;4899520;29;20048;-78
2022/04/13 07:59:31;;;;;;;30.92;18.88;;;12.90;99.90;;;;;;4882779;29;20056;-78
2022/04/13 08:01:57;;;;;;;34.20;17.92;;;13.00;99.90;;;;;;4882726;29;20068;-78
2022/04/13 08:04:25;;;;;;;31.60;19.10;;;13.20;99.90;;;;;;4899751;29;20037;-78
2022/04/13 08:06:51;;;;;;;32.53;19.13;;;13.40;99.90;;;;;;4882626;29;20044;-77
2022/04/13 08:09:17;;;;;;;32.72;18.60;;;13.50;99.90;;;;;;4882562;29;20056;-79
2022/04/13 08:11:45;;;;;;;30.63;17.73;;;13.90;99.90;;;;;;4899225;29;20228;-79
2022/04/13 08:14:10;;;;;;;30.02;17.88;;;14.20;99.90;;;;;;4882794;29;20080;-78
2022/04/13 08:16:36;;;;;;;25.73;17.58;;;14.40;99.90;;;;;;4882530;29;20040;-76
2022/04/13 08:19:02;;;;;;;32.95;18.55;;;14.50;99.90;;;;;;4899365;29;20048;-78
2022/04/13 08:21:27;;;;;;;25.90;17.40;;;14.40;99.90;;;;;;4882389;29;20052;-78
2022/04/13 08:23:53;;;;;;;28.48;17.20;;;14.40;99.90;;;;;;4882531;29;20105;-78
2022/04/13 08:26:18;;;;;;;28.70;17.48;;;14.50;99.90;;;;;;4899025;29;20501;-80
2022/04/13 08:28:44;;;;;;;25.73;15.57;;;14.60;99.90;;;;;;4882195;29;20131;-79
2022/04/13 08:31:10;;;;;;;26.67;15.75;;;14.80;99.90;;;;;;4899088;29;20083;-79
2022/04/13 08:33:36;;;;;;;30.92;16.38;;;14.90;99.90;;;;;;4899211;29;20382;-78
2022/04/13 08:36:02;;;;;;;27.58;16.63;;;15.10;99.90;;;;;;4899200;29;20056;-79
2022/04/13 08:38:28;;;;;;;24.75;15.95;;;15.30;99.90;;;;;;4881925;29;20048;-78
2022/04/13 08:41:07;;;;;;;26.23;16.58;;;15.40;99.90;;;;;;4898501;29;20064;-78
2022/04/13 08:43:44;;;;;;;26.65;15.80;;;15.40;99.90;;;;;;4898290;29;20075;-78
2022/04/13 08:46:23;;;;;;;30.10;18.35;;;15.30;99.90;;;;;;4900697;29;20058;-78
2022/04/13 08:48:56;;;;;;;27.75;15.75;;;15.20;99.90;;;;;;4918011;29;20052;-79
2022/04/13 08:51:23;;;;;;;31.13;17.70;;;15.10;99.90;;;;;;4900596;29;20052;-79
2022/04/13 08:53:58;;;;;;;28.38;16.33;;;15.00;99.90;;;;;;4917585;29;20127;-79
2022/04/13 08:56:24;;;;;;;28.02;17.40;;;15.00;99.90;;;;;;4900477;29;20460;-79
2022/04/13 08:59:11;;;;;;;29.05;17.23;;;15.00;99.90;;;;;;4917592;29;20044;-78
2022/04/13 09:01:52;;;;;;;31.88;17.13;;;15.10;99.90;;;;;;4900633;29;20063;-78
2022/04/13 09:04:20;;;;;;;25.27;17.10;;;15.40;99.90;;;;;;4917616;29;20052;-78
2022/04/13 09:06:47;;;;;;;29.60;17.30;;;15.60;99.90;;;;;;4900347;29;20060;-78
2022/04/13 09:09:19;;;;;;;29.20;16.33;;;15.90;99.90;;;;;;4900206;29;20054;-78
2022/04/13 09:11:45;;;;;;;30.67;17.88;;;16.20;99.90;;;;;;4916973;29;20040;-78
2022/04/13 09:14:12;;;;;;;32.10;17.13;;;16.20;99.90;;;;;;4914846;29;20396;-78
2022/04/13 09:16:39;;;;;;;29.48;18.17;;;16.60;99.90;;;;;;4900480;29;20056;-78
2022/04/13 09:19:05;;;;;;;27.00;16.17;;;16.70;99.90;;;;;;4917329;29;20130;-77
2022/04/13 09:21:32;;;;;;;33.05;16.98;;;16.80;99.90;;;;;;4917055;29;20132;-78
2022/04/13 09:24:00;;;;;;;29.92;17.05;;;17.10;99.90;;;;;;4899369;29;20063;-78
2022/04/13 09:26:27;;;;;;;29.73;16.73;;;17.20;99.90;;;;;;4900111;29;20095;-78
2022/04/13 09:28:52;;;;;;;28.00;16.83;;;17.50;99.90;;;;;;4900067;29;20515;-79
2022/04/13 09:31:20;;;;;;;27.92;17.38;;;17.60;99.90;;;;;;4916985;29;20048;-79
2022/04/13 09:33:45;;;;;;;27.23;16.27;;;17.50;99.90;;;;;;4899361;29;20048;-79
2022/04/13 09:36:11;;;;;;;25.30;16.52;;;17.60;99.90;;;;;;4913080;29;20051;-78
2022/04/13 09:38:38;;;;;;;23.77;15.32;;;17.80;99.90;;;;;;4903219;29;20053;-77
2022/04/13 09:41:11;;;;;;;29.20;16.08;;;18.00;99.90;;;;;;4895963;29;20409;-77
2022/04/13 09:43:40;;;;;;;24.15;15.15;;;18.00;99.90;;;;;;4879476;29;20120;-77
2022/04/13 09:46:05;;;;;;;24.58;14.57;;;18.10;99.90;;;;;;4880702;29;20139;-78
2022/04/13 09:48:31;;;;;;;24.63;14.82;;;18.30;99.90;;;;;;4881406;29;20139;-78
2022/04/13 09:50:58;;;;;;;22.85;15.07;;;18.20;99.90;;;;;;4881474;29;20048;-77
2022/04/13 09:53:24;;;;;;;29.48;15.40;;;18.40;99.90;;;;;;4881151;29;20063;-78
2022/04/13 09:55:55;;;;;;;25.25;14.95;;;18.40;99.90;;;;;;4897923;29;20052;-78
2022/04/13 09:58:24;;;;;;;26.63;15.48;;;18.50;99.90;;;;;;4897501;29;20489;-78
2022/04/13 10:00:52;;;;;;;19.98;11.82;;;18.60;99.90;;;;;;4897960;29;20489;-78
2022/04/13 10:03:23;;;;;;;23.98;11.70;;;18.70;99.90;;;;;;4881137;29;20049;-77
2022/04/13 10:05:51;;;;;;;24.50;12.98;;;18.80;99.90;;;;;;4881991;29;20060;-87
2022/04/13 10:08:22;;;;;;;20.20;11.20;;;18.90;99.90;;;;;;4922800;29;20403;-93
2022/04/13 10:10:49;;;;;;;21.60;12.68;;;19.10;99.90;;;;;;4903181;29;20464;-93
2022/04/13 10:13:43;;;;;;;25.17;13.68;;;19.10;99.90;;;;;;4920510;29;20404;-93
2022/04/13 10:16:10;;;;;;;23.20;13.68;;;19.10;99.90;;;;;;4903622;29;20056;-77
2022/04/13 10:18:57;;;;;;;24.55;13.90;;;19.00;99.90;;;;;;4903176;29;20073;-93
2022/04/13 10:21:43;;;;;;;23.33;12.93;;;19.00;99.90;;;;;;4903223;29;20052;-93
2022/04/13 10:24:19;;;;;;;20.55;13.07;;;19.10;99.90;;;;;;4903227;29;20444;-91
2022/04/13 10:27:19;;;;;;;22.55;12.70;;;19.10;99.90;;;;;;4902997;29;20128;-91
2022/04/13 10:29:47;;;;;;;22.52;12.27;;;19.00;99.90;;;;;;4902907;29;20062;-90
2022/04/13 10:32:25;;;;;;;20.92;11.50;;;19.10;99.90;;;;;;4903364;29;20051;-93
2022/04/13 10:34:54;;;;;;;22.52;12.60;;;19.10;99.90;;;;;;4902902;29;20055;-90
2022/04/13 10:37:21;;;;;;;19.10;9.65;;;19.30;99.90;;;;;;4920590;29;20413;-92
2022/04/13 10:39:48;;;;;;;22.52;11.13;;;19.30;99.90;;;;;;4906326;29;20052;-96
2022/04/13 10:42:17;;;;;;;18.15;11.55;;;19.30;99.90;;;;;;4922737;29;20139;-95
2022/04/13 10:44:51;;;;;;;18.20;10.85;;;19.40;99.90;;;;;;4916332;29;20072;-92
2022/04/13 10:47:29;;;;;;;20.02;9.57;;;19.30;99.90;;;;;;4903130;29;20082;-90
2022/04/13 10:50:00;;;;;;;18.42;9.85;;;19.40;99.90;;;;;;4902632;29;20064;-95
2022/04/13 10:53:13;;;;;;;21.67;10.18;;;19.30;99.90;;;;;;4904022;29;20044;-94
2022/04/13 10:55:40;;;;;;;23.67;10.30;;;19.40;99.90;;;;;;4903455;23;20401;-94
2022/04/13 10:58:18;;;;;;;21.40;8.88;;;19.30;99.90;;;;;;4879282;23;20056;-95
2022/04/13 11:00:46;;;;;;;22.58;9.98;;;19.30;99.90;;;;;;5098880;23;20063;-92
2022/04/13 11:03:12;;;;;;;19.35;9.50;;;19.00;99.90;;;;;;4924473;29;20063;-96
2022/04/13 11:05:40;;;;;;;20.65;9.60;;;19.00;99.90;;;;;;4924670;29;20051;-94
2022/04/13 11:08:06;;;;;;;19.48;10.00;;;18.90;99.90;;;;;;4921412;29;20099;-94
2022/04/13 11:10:34;;;;;;;22.95;10.48;;;18.90;99.90;;;;;;4923662;29;20055;-95
2022/04/13 11:13:00;;;;;;;19.42;10.80;;;18.90;99.90;;;;;;4923859;29;20055;-93
2022/04/13 11:15:45;;;;;;;17.75;9.15;;;19.00;99.90;;;;;;4947295;29;20047;-96
2022/04/13 11:18:20;;;;;;;17.05;10.15;;;18.90;99.90;;;;;;4922297;29;20479;-94
2022/04/13 11:21:01;;;;;;;18.90;9.95;;;18.90;99.90;;;;;;4921334;29;20055;-88
2022/04/13 11:23:47;;;;;;;24.75;9.77;;;18.90;99.90;;;;;;4923022;29;20099;-95
2022/04/13 11:26:14;;;;;;;22.52;9.88;;;18.80;99.90;;;;;;4932338;29;20063;-93
2022/04/13 11:28:39;;;;;;;19.92;9.80;;;18.70;99.90;;;;;;4922614;29;20040;-82
2022/04/13 11:31:09;;;;;;;18.17;10.25;;;18.80;99.90;;;;;;4921341;29;20483;-81
2022/04/13 11:33:55;;;;;;;21.75;9.50;;;18.70;99.90;;;;;;4937436;29;20440;-79
2022/04/13 11:36:23;;;;;;;18.60;9.15;;;18.70;99.90;;;;;;4921079;29;20048;-78
2022/04/13 11:38:51;;;;;;;18.20;9.40;;;18.40;99.90;;;;;;4937632;29;20500;-78
2022/04/13 11:41:17;;;;;;;20.15;10.95;;;18.30;99.90;;;;;;4920712;29;20130;-78
2022/04/13 11:43:45;;;;;;;17.55;11.23;;;18.20;99.90;;;;;;4920642;29;20036;-78
2022/04/13 11:46:38;;;;;;;22.60;10.95;;;18.00;99.90;;;;;;4920591;29;20057;-78
2022/04/13 11:49:10;;;;;;;20.98;10.05;;;18.00;99.90;;;;;;4920582;29;20118;-78
2022/04/13 11:51:37;;;;;;;21.75;9.20;;;17.70;99.90;;;;;;4920693;29;20066;-77
2022/04/13 11:54:10;;;;;;;18.67;8.73;;;17.70;99.90;;;;;;4920441;29;20392;-78
2022/04/13 11:56:51;;;;;;;23.25;9.27;;;17.70;99.90;;;;;;4920415;29;20043;-79
2022/04/13 11:59:46;;;;;;;19.13;8.82;;;17.60;99.90;;;;;;4920435;29;20047;-78
2022/04/13 12:02:14;;;;;;;22.88;10.10;;;17.60;99.90;;;;;;4920379;29;20063;-78
2022/04/13 12:04:39;;;;;;;22.13;10.20;;;17.40;99.90;;;;;;4920236;29;20139;-78
2022/04/13 12:07:08;;;;;;;17.48;9.48;;;17.30;99.90;;;;;;4920156;29;20122;-78
2022/04/13 12:09:35;;;;;;;21.88;9.70;;;17.20;99.90;;;;;;4937231;29;20508;-78
2022/04/13 12:12:02;;;;;;;20.80;7.85;;;17.00;99.90;;;;;;4920235;29;20083;-78
2022/04/13 12:14:33;;;;;;;21.38;8.35;;;16.90;99.90;;;;;;4920291;29;20043;-78
2022/04/13 12:17:02;;;;;;;21.88;8.95;;;16.70;99.90;;;;;;4937172;29;20063;-78
2022/04/13 12:19:39;;;;;;;18.13;9.85;;;16.60;99.90;;;;;;4919967;29;20044;-77
2022/04/13 12:22:18;;;;;;;19.00;10.05;;;16.50;99.90;;;;;;4920271;29;20048;-78
2022/04/13 12:24:57;;;;;;;24.65;10.38;;;16.50;99.90;;;;;;4919852;29;20051;-78
2022/04/13 12:27:23;;;;;;;21.45;9.88;;;16.40;99.90;;;;;;4919907;29;20566;-78
2022/04/13 12:29:49;;;;;;;30.05;11.65;;;16.40;99.90;;;;;;4936753;29;20039;-78
2022/04/13 12:32:18;;;;;;;17.92;9.70;;;16.30;99.90;;;;;;4920003;29;20070;-78